RJTY/OKO METAR and TAF weather

Enter ICAO airport designator
Station Type Date Time Source
RJTY METAR 2019/05/27 08:56 UTC NOAA

RJTY 270856Z AUTO 19010KT 10SM CLR 26/16 A2989 RMK AO2 SLP120 T02620155 55008 FZRANO $


Station Type Date Time Source
RJTY Decoded METAR 2019/05/27 08:56 UTC NOAA

Yokota Ab, Japan (RJTY) 35-45N 139-21E 142M
May 27, 2019 - 04:56 AM EDT / 2019.05.27 0856 UTC
Wind: from the S (190 degrees) at 12 MPH (10 KT):0
Visibility: 10 mile(s):0
Sky conditions: clear
Temperature: 79.2 F (26.2 C)
Dew Point: 59.9 F (15.5 C)
Relative Humidity: 51%
Pressure (altimeter): 29.89 in. Hg (1012 hPa)
Pressure tendency: 0.02 inches (0.8 hPa) lower than three hours ago
ob: RJTY 270856Z AUTO 19010KT 10SM CLR 26/16 A2989 RMK AO2 SLP120 T02620155 55008 FZRANO
cycle: 9

Station Type Date Time Source
RJTY TAF 2019/05/27 05:06 UTC NOAA

TAF TAF RJTY 270500Z 2705/2811 17010G15KT 9999 FEW200 QNH2986INS
BECMG 2708/2709 VRB06KT 9999 SCT200 QNH2982INS
BECMG 2715/2716 VRB06KT 9999 BKN170 QNH2973INS
BECMG 2803/2804 21010G15KT 9999 VCSH BKN100 QNH2969INS TX33/2706Z TN15/2721Z

Example: see airport list